Wind From: 11-12-2017 04:25 Until: 16:00 warning for: Wind Level: Orange info button

Power and phone distribution networks may be disrupted for relatively long periods., Roofs and chimneys can be damaged. , Tree branches may break. , Vehicles can be deported. , Traffic may be disrupted, particularly on secondary roads in forest areas. Limit your trips. , Limit your speed in highway driving, especially if you drive a vehicle or hitch sensitive to wind. , Do not go for walks in forests or along the coast., In town, be vigilant against possible falling objects., Do not work on roofs and do not touch any electrical line fallen on the ground., Store or secure sensitive objects to wind or likely to be damaged., Always install power generators outside buildings. 


Meteo18 Weather Cam more information Meteo18 Weather Cam


Thunder radar more information blitzortung!


Rain radar more information rain snow radar


Visit our other weather sites:

Template documentation
and downloads

And another site



Weather Underground History page Text

Daily Summary for May 17, 2017 Units:  Both    English   Metric
« Previous Day
Next Day »
Daily Weekly Monthly Yearly Custom
  High: Low: Average:
Temperature: 82.2 °F /  27.9 °C 53.6 °F /  12.0 °C 70 °F /  21.1 °C
Dew Point: 62.6 °F /  17.0 °C 51.3 °F /  10.7 °C 57.6 °F /  14.2 °C
Humidity: 93 % 42 % 67 %
Wind Speed: 11 mph /  17.7 km/h - 2.9 mph /  4.6 km/h
Wind Gust: 19 mph /  30.6 km/h - -
Wind:- - SSW
Pressure: 30.3 in /  1024.6 hPa 29.9 in /  1013.8 hPa -
Precipitation: 0 in /  0.0 mm    
Historical Graphs
 
 
Tabular Data for May 17, 2017
Time Temperature Dew Point Pressure Wind Wind Speed Wind Gust Humidity Rainfall Rate (Hourly)
00:02 63.7 °F /  17.6 °C 55.2 °F /  12.9 °C 30.3 in /  1024.6 hPa Calm   2 mph /  3.2 km/h 74 % 0 in /  0.0 mm
00:12 63.1 °F /  17.3 °C 55 °F /  12.8 °C 30.3 in /  1024.6 hPa WNW 1 mph /  1.6 km/h 2 mph /  3.2 km/h 75 % 0 in /  0.0 mm
00:17 62.2 °F /  16.8 °C 54.9 °F /  12.7 °C 30.3 in /  1024.6 hPa WNW 2 mph /  3.2 km/h 2 mph /  3.2 km/h 77 % 0 in /  0.0 mm
00:22 61.9 °F /  16.6 °C 54.9 °F /  12.7 °C 30.3 in /  1024.6 hPa Calm   2 mph /  3.2 km/h 78 % 0 in /  0.0 mm
00:32 61.9 °F /  16.6 °C 55.2 °F /  12.9 °C 30.3 in /  1024.6 hPa Calm   2 mph /  3.2 km/h 79 % 0 in /  0.0 mm
00:37 62.1 °F /  16.7 °C 55 °F /  12.8 °C 30.3 in /  1024.3 hPa Calm   2 mph /  3.2 km/h 78 % 0 in /  0.0 mm
00:42 62.1 °F /  16.7 °C 55 °F /  12.8 °C 30.3 in /  1024.3 hPa Calm   1 mph /  1.6 km/h 78 % 0 in /  0.0 mm
00:52 62.2 °F /  16.8 °C 54.9 °F /  12.7 °C 30.3 in /  1024.3 hPa Calm   1 mph /  1.6 km/h 77 % 0 in /  0.0 mm
00:57 61.9 °F /  16.6 °C 54.9 °F /  12.7 °C 30.3 in /  1024.3 hPa NW 1 mph /  1.6 km/h 1 mph /  1.6 km/h 78 % 0 in /  0.0 mm
01:02 61.3 °F /  16.3 °C 54.9 °F /  12.7 °C 30.3 in /  1024.3 hPa NW 1 mph /  1.6 km/h 1 mph /  1.6 km/h 79 % 0 in /  0.0 mm
01:07 61.3 °F /  16.3 °C 55 °F /  12.8 °C 30.3 in /  1024.3 hPa Calm   1 mph /  1.6 km/h 80 % 0 in /  0.0 mm
01:12 62.2 °F /  16.8 °C 55.2 °F /  12.9 °C 30.3 in /  1024.3 hPa Calm   1 mph /  1.6 km/h 78 % 0 in /  0.0 mm
01:17 62.8 °F /  17.1 °C 55 °F /  12.8 °C 30.3 in /  1024.3 hPa Calm   1 mph /  1.6 km/h 76 % 0 in /  0.0 mm
01:22 62.4 °F /  16.9 °C 54.7 °F /  12.6 °C 30.3 in /  1024.3 hPa WNW 1 mph /  1.6 km/h 1 mph /  1.6 km/h 76 % 0 in /  0.0 mm
01:27 61 °F /  16.1 °C 54.5 °F /  12.5 °C 30.3 in /  1024.3 hPa WNW 2 mph /  3.2 km/h 2 mph /  3.2 km/h 79 % 0 in /  0.0 mm
01:32 61 °F /  16.1 °C 55 °F /  12.8 °C 30.3 in /  1024.3 hPa NW 1 mph /  1.6 km/h 2 mph /  3.2 km/h 81 % 0 in /  0.0 mm
01:42 61.3 °F /  16.3 °C 55 °F /  12.8 °C 30.2 in /  1023.9 hPa NNE 1 mph /  1.6 km/h 2 mph /  3.2 km/h 80 % 0 in /  0.0 mm
01:47 61.5 °F /  16.4 °C 54.9 °F /  12.7 °C 30.2 in /  1023.9 hPa NNE 3 mph /  4.8 km/h 4 mph /  6.4 km/h 79 % 0 in /  0.0 mm
01:52 62.1 °F /  16.7 °C 55 °F /  12.8 °C 30.2 in /  1023.9 hPa NNE 2 mph /  3.2 km/h 4 mph /  6.4 km/h 78 % 0 in /  0.0 mm
01:57 61.9 °F /  16.6 °C 54.9 °F /  12.7 °C 30.2 in /  1023.9 hPa NNE 3 mph /  4.8 km/h 4 mph /  6.4 km/h 78 % 0 in /  0.0 mm
02:02 61.9 °F /  16.6 °C 55.2 °F /  12.9 °C 30.2 in /  1023.9 hPa NNE 1 mph /  1.6 km/h 4 mph /  6.4 km/h 79 % 0 in /  0.0 mm
02:07 61.5 °F /  16.4 °C 54.9 °F /  12.7 °C 30.2 in /  1023.9 hPa Calm   3 mph /  4.8 km/h 79 % 0 in /  0.0 mm
02:12 61.5 °F /  16.4 °C 54.9 °F /  12.7 °C 30.2 in /  1023.9 hPa Calm   3 mph /  4.8 km/h 79 % 0 in /  0.0 mm
02:17 61.3 °F /  16.3 °C 55 °F /  12.8 °C 30.2 in /  1023.9 hPa Calm   2 mph /  3.2 km/h 80 % 0 in /  0.0 mm
02:22 61.3 °F /  16.3 °C 55 °F /  12.8 °C 30.2 in /  1023.9 hPa Calm   1 mph /  1.6 km/h 80 % 0 in /  0.0 mm
02:27 61.2 °F /  16.2 °C 54.9 °F /  12.7 °C 30.2 in /  1023.9 hPa Calm   1 mph /  1.6 km/h 80 % 0 in /  0.0 mm
02:37 60.3 °F /  15.7 °C 54.3 °F /  12.4 °C 30.2 in /  1023.6 hPa Calm     81 % 0 in /  0.0 mm
02:47 59.2 °F /  15.1 °C 54.3 °F /  12.4 °C 30.2 in /  1023.6 hPa Calm     84 % 0 in /  0.0 mm
02:52 59.2 °F /  15.1 °C 54.7 °F /  12.6 °C 30.2 in /  1023.2 hPa Calm     85 % 0 in /  0.0 mm
03:02 58.6 °F /  14.8 °C 54.5 °F /  12.5 °C 30.2 in /  1023.2 hPa Calm     86 % 0 in /  0.0 mm
03:12 58.8 °F /  14.9 °C 54.3 °F /  12.4 °C 30.2 in /  1023.2 hPa Calm     85 % 0 in /  0.0 mm
03:17 57.9 °F /  14.4 °C 53.1 °F /  11.7 °C 30.2 in /  1023.2 hPa WNW 1 mph /  1.6 km/h 3 mph /  4.8 km/h 84 % 0 in /  0.0 mm
03:22 57.7 °F /  14.3 °C 54 °F /  12.2 °C 30.2 in /  1023.2 hPa WNW 1 mph /  1.6 km/h 3 mph /  4.8 km/h 87 % 0 in /  0.0 mm
03:32 57.7 °F /  14.3 °C 53.2 °F /  11.8 °C 30.2 in /  1022.9 hPa Calm   2 mph /  3.2 km/h 85 % 0 in /  0.0 mm
03:42 57 °F /  13.9 °C 53.4 °F /  11.9 °C 30.2 in /  1022.9 hPa Calm     88 % 0 in /  0.0 mm
03:47 57 °F /  13.9 °C 53.4 °F /  11.9 °C 30.2 in /  1022.9 hPa Calm     88 % 0 in /  0.0 mm
03:52 56.8 °F /  13.8 °C 53.2 °F /  11.8 °C 30.2 in /  1022.9 hPa Calm     88 % 0 in /  0.0 mm
03:57 56.7 °F /  13.7 °C 53.1 °F /  11.7 °C 30.2 in /  1022.9 hPa Calm     88 % 0 in /  0.0 mm
04:02 56.5 °F /  13.6 °C 53.2 °F /  11.8 °C 30.2 in /  1022.9 hPa Calm     89 % 0 in /  0.0 mm
04:07 56.5 °F /  13.6 °C 53.2 °F /  11.8 °C 30.2 in /  1022.6 hPa Calm     89 % 0 in /  0.0 mm
04:12 56.7 °F /  13.7 °C 53.4 °F /  11.9 °C 30.2 in /  1022.6 hPa Calm     89 % 0 in /  0.0 mm
04:17 56.8 °F /  13.8 °C 53.6 °F /  12.0 °C 30.2 in /  1022.6 hPa NNE 2 mph /  3.2 km/h   89 % 0 in /  0.0 mm
04:22 57 °F /  13.9 °C 53.2 °F /  11.8 °C 30.2 in /  1022.6 hPa NNE 2 mph /  3.2 km/h 3 mph /  4.8 km/h 87 % 0 in /  0.0 mm
04:27 57 °F /  13.9 °C 53.2 °F /  11.8 °C 30.2 in /  1022.2 hPa Calm   3 mph /  4.8 km/h 87 % 0 in /  0.0 mm
04:32 55.6 °F /  13.1 °C 51.4 °F /  10.8 °C 30.2 in /  1022.6 hPa WNW 1 mph /  1.6 km/h 3 mph /  4.8 km/h 86 % 0 in /  0.0 mm
04:37 55.2 °F /  12.9 °C 52 °F /  11.1 °C 30.2 in /  1022.2 hPa WNW 1 mph /  1.6 km/h 2 mph /  3.2 km/h 89 % 0 in /  0.0 mm
04:42 55 °F /  12.8 °C 51.8 °F /  11.0 °C 30.2 in /  1022.2 hPa Calm   2 mph /  3.2 km/h 89 % 0 in /  0.0 mm
04:47 54.9 °F /  12.7 °C 52 °F /  11.1 °C 30.2 in /  1022.2 hPa Calm   2 mph /  3.2 km/h 90 % 0 in /  0.0 mm
04:52 54.9 °F /  12.7 °C 52.3 °F /  11.3 °C 30.2 in /  1022.2 hPa Calm   2 mph /  3.2 km/h 91 % 0 in /  0.0 mm
04:57 54.5 °F /  12.5 °C 52 °F /  11.1 °C 30.2 in /  1022.2 hPa Calm     91 % 0 in /  0.0 mm
05:02 54.7 °F /  12.6 °C 52.2 °F /  11.2 °C 30.2 in /  1022.2 hPa Calm     91 % 0 in /  0.0 mm
05:12 55 °F /  12.8 °C 52.5 °F /  11.4 °C 30.2 in /  1021.9 hPa Calm   1 mph /  1.6 km/h 91 % 0 in /  0.0 mm
05:17 54.9 °F /  12.7 °C 52.3 °F /  11.3 °C 30.2 in /  1021.9 hPa Calm   1 mph /  1.6 km/h 91 % 0 in /  0.0 mm
05:22 54.7 °F /  12.6 °C 52.2 °F /  11.2 °C 30.2 in /  1021.6 hPa Calm   1 mph /  1.6 km/h 91 % 0 in /  0.0 mm
05:27 54.9 °F /  12.7 °C 52.3 °F /  11.3 °C 30.2 in /  1021.6 hPa Calm     91 % 0 in /  0.0 mm
05:32 55 °F /  12.8 °C 52.5 °F /  11.4 °C 30.2 in /  1021.6 hPa Calm   1 mph /  1.6 km/h 91 % 0 in /  0.0 mm
05:37 55 °F /  12.8 °C 52.2 °F /  11.2 °C 30.2 in /  1021.6 hPa Calm   1 mph /  1.6 km/h 90 % 0 in /  0.0 mm
05:42 54.7 °F /  12.6 °C 51.8 °F /  11.0 °C 30.2 in /  1021.6 hPa Calm   1 mph /  1.6 km/h 90 % 0 in /  0.0 mm
05:47 54.3 °F /  12.4 °C 51.4 °F /  10.8 °C 30.2 in /  1021.6 hPa Calm     90 % 0 in /  0.0 mm
05:52 53.8 °F /  12.1 °C 51.3 °F /  10.7 °C 30.2 in /  1021.6 hPa WNW 2 mph /  3.2 km/h 2 mph /  3.2 km/h 91 % 0 in /  0.0 mm
05:57 53.6 °F /  12.0 °C 51.3 °F /  10.7 °C 30.2 in /  1021.6 hPa WNW 1 mph /  1.6 km/h 2 mph /  3.2 km/h 92 % 0 in /  0.0 mm
06:02 53.8 °F /  12.1 °C 51.4 °F /  10.8 °C 30.2 in /  1021.6 hPa North 1 mph /  1.6 km/h 2 mph /  3.2 km/h 92 % 0 in /  0.0 mm
06:07 54 °F /  12.2 °C 52 °F /  11.1 °C 30.2 in /  1021.6 hPa Calm   2 mph /  3.2 km/h 93 % 0 in /  0.0 mm
06:12 54.1 °F /  12.3 °C 51.8 °F /  11.0 °C 30.2 in /  1021.6 hPa Calm   2 mph /  3.2 km/h 92 % 0 in /  0.0 mm
06:17 54 °F /  12.2 °C 51.6 °F /  10.9 °C 30.2 in /  1021.6 hPa Calm   1 mph /  1.6 km/h 92 % 0 in /  0.0 mm
06:22 54.1 °F /  12.3 °C 51.8 °F /  11.0 °C 30.2 in /  1021.6 hPa Calm   1 mph /  1.6 km/h 92 % 0 in /  0.0 mm
06:32 54.7 °F /  12.6 °C 52.2 °F /  11.2 °C 30.2 in /  1021.6 hPa Calm     91 % 0 in /  0.0 mm
06:42 55 °F /  12.8 °C 52.5 °F /  11.4 °C 30.2 in /  1021.6 hPa Calm     91 % 0 in /  0.0 mm
06:52 54.9 °F /  12.7 °C 52 °F /  11.1 °C 30.2 in /  1021.2 hPa Calm   1 mph /  1.6 km/h 90 % 0 in /  0.0 mm
07:02 54.9 °F /  12.7 °C 52.3 °F /  11.3 °C 30.2 in /  1021.6 hPa WNW 1 mph /  1.6 km/h 1 mph /  1.6 km/h 91 % 0 in /  0.0 mm
07:12 55.2 °F /  12.9 °C 52.9 °F /  11.6 °C 30.2 in /  1021.2 hPa Calm   1 mph /  1.6 km/h 92 % 0 in /  0.0 mm
07:17 55.6 °F /  13.1 °C 53.2 °F /  11.8 °C 30.2 in /  1021.2 hPa North 2 mph /  3.2 km/h 2 mph /  3.2 km/h 92 % 0 in /  0.0 mm
07:22 56.5 °F /  13.6 °C 53.6 °F /  12.0 °C 30.2 in /  1021.2 hPa Calm   2 mph /  3.2 km/h 90 % 0 in /  0.0 mm
07:32 58.3 °F /  14.6 °C 54.5 °F /  12.5 °C 30.2 in /  1021.2 hPa Calm   2 mph /  3.2 km/h 87 % 0 in /  0.0 mm
07:42 59.4 °F /  15.2 °C 53.8 °F /  12.1 °C 30.2 in /  1021.2 hPa Calm     82 % 0 in /  0.0 mm
07:47 59.2 °F /  15.1 °C 54.3 °F /  12.4 °C 30.2 in /  1021.2 hPa Calm     84 % 0 in /  0.0 mm
07:52 60.4 °F /  15.8 °C 55.6 °F /  13.1 °C 30.2 in /  1021.2 hPa Calm     84 % 0 in /  0.0 mm
07:57 61.9 °F /  16.6 °C 55.6 °F /  13.1 °C 30.2 in /  1021.2 hPa Calm     80 % 0 in /  0.0 mm
08:02 62.8 °F /  17.1 °C 55.4 °F /  13.0 °C 30.2 in /  1021.2 hPa Calm   1 mph /  1.6 km/h 77 % 0 in /  0.0 mm
08:12 64.2 °F /  17.9 °C 55 °F /  12.8 °C 30.2 in /  1021.2 hPa Calm   1 mph /  1.6 km/h 72 % 0 in /  0.0 mm
08:17 64.2 °F /  17.9 °C 55 °F /  12.8 °C 30.2 in /  1020.9 hPa Calm   1 mph /  1.6 km/h 72 % 0 in /  0.0 mm
08:22 64.2 °F /  17.9 °C 54.7 °F /  12.6 °C 30.2 in /  1021.2 hPa Calm   1 mph /  1.6 km/h 71 % 0 in /  0.0 mm
08:32 64.2 °F /  17.9 °C 55 °F /  12.8 °C 30.2 in /  1020.9 hPa Calm   2 mph /  3.2 km/h 72 % 0 in /  0.0 mm
08:37 64.4 °F /  18.0 °C 55.2 °F /  12.9 °C 30.2 in /  1020.9 hPa Calm   3 mph /  4.8 km/h 72 % 0 in /  0.0 mm
08:42 64.9 °F /  18.3 °C 55.8 °F /  13.2 °C 30.2 in /  1020.9 hPa Calm   3 mph /  4.8 km/h 72 % 0 in /  0.0 mm
08:47 64.2 °F /  17.9 °C 55.4 °F /  13.0 °C 30.1 in /  1020.5 hPa East 1 mph /  1.6 km/h 3 mph /  4.8 km/h 73 % 0 in /  0.0 mm
08:52 63.9 °F /  17.7 °C 55.4 °F /  13.0 °C 30.1 in /  1020.5 hPa ENE 1 mph /  1.6 km/h 3 mph /  4.8 km/h 74 % 0 in /  0.0 mm
08:57 64.6 °F /  18.1 °C 56.1 °F /  13.4 °C 30.1 in /  1020.5 hPa East 1 mph /  1.6 km/h 3 mph /  4.8 km/h 74 % 0 in /  0.0 mm
09:02 64.6 °F /  18.1 °C 56.1 °F /  13.4 °C 30.1 in /  1020.5 hPa Calm   3 mph /  4.8 km/h 74 % 0 in /  0.0 mm
09:12 65.5 °F /  18.6 °C 56.7 °F /  13.7 °C 30.1 in /  1020.5 hPa East 1 mph /  1.6 km/h 3 mph /  4.8 km/h 73 % 0 in /  0.0 mm
09:17 65.1 °F /  18.4 °C 55.9 °F /  13.3 °C 30.1 in /  1020.5 hPa ENE 3 mph /  4.8 km/h 3 mph /  4.8 km/h 72 % 0 in /  0.0 mm
09:22 64.6 °F /  18.1 °C 55.8 °F /  13.2 °C 30.1 in /  1020.5 hPa East 3 mph /  4.8 km/h 3 mph /  4.8 km/h 73 % 0 in /  0.0 mm
09:27 64.8 °F /  18.2 °C 56.7 °F /  13.7 °C 30.1 in /  1020.5 hPa East 1 mph /  1.6 km/h 4 mph /  6.4 km/h 75 % 0 in /  0.0 mm
09:32 65.5 °F /  18.6 °C 56.7 °F /  13.7 °C 30.1 in /  1020.5 hPa East 2 mph /  3.2 km/h 4 mph /  6.4 km/h 73 % 0 in /  0.0 mm
09:37 65.7 °F /  18.7 °C 57.6 °F /  14.2 °C 30.1 in /  1020.2 hPa Calm   4 mph /  6.4 km/h 75 % 0 in /  0.0 mm
09:42 66.4 °F /  19.1 °C 57 °F /  13.9 °C 30.1 in /  1020.2 hPa East 1 mph /  1.6 km/h 4 mph /  6.4 km/h 72 % 0 in /  0.0 mm
09:47 66.9 °F /  19.4 °C 57.9 °F /  14.4 °C 30.1 in /  1020.2 hPa Calm   3 mph /  4.8 km/h 73 % 0 in /  0.0 mm
09:52 67.3 °F /  19.6 °C 58.3 °F /  14.6 °C 30.1 in /  1020.2 hPa ENE 1 mph /  1.6 km/h 3 mph /  4.8 km/h 73 % 0 in /  0.0 mm
09:57 67.3 °F /  19.6 °C 58.3 °F /  14.6 °C 30.1 in /  1020.2 hPa Calm   4 mph /  6.4 km/h 73 % 0 in /  0.0 mm
10:02 67.8 °F /  19.9 °C 58.5 °F /  14.7 °C 30.1 in /  1020.2 hPa ESE 1 mph /  1.6 km/h 5 mph /  8.0 km/h 72 % 0 in /  0.0 mm
10:12 68.5 °F /  20.3 °C 58.8 °F /  14.9 °C 30.1 in /  1019.9 hPa ENE 1 mph /  1.6 km/h 5 mph /  8.0 km/h 71 % 0 in /  0.0 mm
10:17 68.7 °F /  20.4 °C 59 °F /  15.0 °C 30.1 in /  1019.9 hPa ENE 5 mph /  8.0 km/h 5 mph /  8.0 km/h 71 % 0 in /  0.0 mm
10:22 68.7 °F /  20.4 °C 59 °F /  15.0 °C 30.1 in /  1019.9 hPa ENE 1 mph /  1.6 km/h 6 mph /  9.7 km/h 71 % 0 in /  0.0 mm
10:32 69.8 °F /  21.0 °C 59.5 °F /  15.3 °C 30.1 in /  1019.9 hPa East 1 mph /  1.6 km/h 6 mph /  9.7 km/h 70 % 0 in /  0.0 mm
10:42 69.4 °F /  20.8 °C 59.5 °F /  15.3 °C 30.1 in /  1019.5 hPa SSE 2 mph /  3.2 km/h 4 mph /  6.4 km/h 71 % 0 in /  0.0 mm
10:47 70.3 °F /  21.3 °C 60.1 °F /  15.6 °C 30.1 in /  1019.5 hPa ENE 2 mph /  3.2 km/h 5 mph /  8.0 km/h 70 % 0 in /  0.0 mm
10:52 70.9 °F /  21.6 °C 59.7 °F /  15.4 °C 30.1 in /  1019.5 hPa SE 4 mph /  6.4 km/h 5 mph /  8.0 km/h 68 % 0 in /  0.0 mm
10:57 71.1 °F /  21.7 °C 59.9 °F /  15.5 °C 30.1 in /  1019.5 hPa ENE 1 mph /  1.6 km/h 5 mph /  8.0 km/h 68 % 0 in /  0.0 mm
11:02 71.2 °F /  21.8 °C 59.7 °F /  15.4 °C 30.1 in /  1019.2 hPa Calm   4 mph /  6.4 km/h 67 % 0 in /  0.0 mm
11:12 72.3 °F /  22.4 °C 59.9 °F /  15.5 °C 30.1 in /  1019.2 hPa ENE 2 mph /  3.2 km/h 5 mph /  8.0 km/h 65 % 0 in /  0.0 mm
11:17 72.3 °F /  22.4 °C 59.9 °F /  15.5 °C 30.1 in /  1019.2 hPa East 1 mph /  1.6 km/h 5 mph /  8.0 km/h 65 % 0 in /  0.0 mm
11:22 72.7 °F /  22.6 °C 61.2 °F /  16.2 °C 30.1 in /  1018.8 hPa ENE 1 mph /  1.6 km/h 4 mph /  6.4 km/h 67 % 0 in /  0.0 mm
11:27 73.2 °F /  22.9 °C 61.5 °F /  16.4 °C 30.1 in /  1018.8 hPa SE 2 mph /  3.2 km/h 4 mph /  6.4 km/h 67 % 0 in /  0.0 mm
11:32 73.9 °F /  23.3 °C 61.9 °F /  16.6 °C 30.1 in /  1018.8 hPa ENE 2 mph /  3.2 km/h 4 mph /  6.4 km/h 66 % 0 in /  0.0 mm
11:42 74.1 °F /  23.4 °C 62.4 °F /  16.9 °C 30.1 in /  1018.8 hPa East 2 mph /  3.2 km/h 4 mph /  6.4 km/h 67 % 0 in /  0.0 mm
11:47 75 °F /  23.9 °C 62.1 °F /  16.7 °C 30.1 in /  1018.8 hPa SE 3 mph /  4.8 km/h 5 mph /  8.0 km/h 64 % 0 in /  0.0 mm
11:52 75.2 °F /  24.0 °C 60.8 °F /  16.0 °C 30.1 in /  1018.8 hPa South 2 mph /  3.2 km/h 7 mph /  11.3 km/h 61 % 0 in /  0.0 mm
12:02 75.4 °F /  24.1 °C 61 °F /  16.1 °C 30.1 in /  1018.5 hPa SE 6 mph /  9.7 km/h 7 mph /  11.3 km/h 61 % 0 in /  0.0 mm
12:12 75.4 °F /  24.1 °C 61 °F /  16.1 °C 30.1 in /  1018.5 hPa South 5 mph /  8.0 km/h 7 mph /  11.3 km/h 61 % 0 in /  0.0 mm
12:17 75.9 °F /  24.4 °C 61.5 °F /  16.4 °C 30.1 in /  1018.2 hPa ESE 3 mph /  4.8 km/h 8 mph /  12.9 km/h 61 % 0 in /  0.0 mm
12:22 75.9 °F /  24.4 °C 61 °F /  16.1 °C 30.1 in /  1018.2 hPa WSW 1 mph /  1.6 km/h 8 mph /  12.9 km/h 60 % 0 in /  0.0 mm
12:32 76.5 °F /  24.7 °C 62.1 °F /  16.7 °C 30.1 in /  1018.2 hPa SE 3 mph /  4.8 km/h 8 mph /  12.9 km/h 61 % 0 in /  0.0 mm
12:37 76.6 °F /  24.8 °C 61.7 °F /  16.5 °C 30.1 in /  1018.2 hPa SSW 4 mph /  6.4 km/h 8 mph /  12.9 km/h 60 % 0 in /  0.0 mm
12:42 76.8 °F /  24.9 °C 61 °F /  16.1 °C 30.1 in /  1018.2 hPa South 2 mph /  3.2 km/h 8 mph /  12.9 km/h 58 % 0 in /  0.0 mm
12:47 76.8 °F /  24.9 °C 61.9 °F /  16.6 °C 30.1 in /  1018.2 hPa East 3 mph /  4.8 km/h 10 mph /  16.1 km/h 60 % 0 in /  0.0 mm
12:52 77.2 °F /  25.1 °C 61.7 °F /  16.5 °C 30.1 in /  1017.8 hPa SSE 2 mph /  3.2 km/h 10 mph /  16.1 km/h 59 % 0 in /  0.0 mm
13:02 77.4 °F /  25.2 °C 61.3 °F /  16.3 °C 30.1 in /  1017.8 hPa SSW 5 mph /  8.0 km/h 8 mph /  12.9 km/h 58 % 0 in /  0.0 mm
13:07 77.7 °F /  25.4 °C 61.3 °F /  16.3 °C 30.1 in /  1017.8 hPa South 4 mph /  6.4 km/h 8 mph /  12.9 km/h 57 % 0 in /  0.0 mm
13:12 78.3 °F /  25.7 °C 60.8 °F /  16.0 °C 30.1 in /  1017.8 hPa SSE 3 mph /  4.8 km/h 9 mph /  14.5 km/h 55 % 0 in /  0.0 mm
13:17 78.8 °F /  26.0 °C 61.7 °F /  16.5 °C 30.1 in /  1017.8 hPa SSE 2 mph /  3.2 km/h 9 mph /  14.5 km/h 56 % 0 in /  0.0 mm
13:22 78.6 °F /  25.9 °C 60.6 °F /  15.9 °C 30.1 in /  1017.8 hPa SW 8 mph /  12.9 km/h 9 mph /  14.5 km/h 54 % 0 in /  0.0 mm
13:27 78.4 °F /  25.8 °C 59.4 °F /  15.2 °C 30.1 in /  1017.5 hPa SSE 4 mph /  6.4 km/h 12 mph /  19.3 km/h 52 % 0 in /  0.0 mm
13:32 78.6 °F /  25.9 °C 59.5 °F /  15.3 °C 30.1 in /  1017.5 hPa SW 7 mph /  11.3 km/h 12 mph /  19.3 km/h 52 % 0 in /  0.0 mm
13:37 79 °F /  26.1 °C 59.9 °F /  15.5 °C 30.1 in /  1017.5 hPa SSE 4 mph /  6.4 km/h 12 mph /  19.3 km/h 52 % 0 in /  0.0 mm
13:42 79.2 °F /  26.2 °C 59 °F /  15.0 °C 30 in /  1017.2 hPa SW 5 mph /  8.0 km/h 11 mph /  17.7 km/h 50 % 0 in /  0.0 mm
13:47 79.2 °F /  26.2 °C 60.1 °F /  15.6 °C 30 in /  1017.2 hPa SSW 3 mph /  4.8 km/h 11 mph /  17.7 km/h 52 % 0 in /  0.0 mm
13:52 79.5 °F /  26.4 °C 59.2 °F /  15.1 °C 30 in /  1017.2 hPa WSW 6 mph /  9.7 km/h 11 mph /  17.7 km/h 50 % 0 in /  0.0 mm
13:57 79.5 °F /  26.4 °C 56.8 °F /  13.8 °C 30 in /  1017.2 hPa SW 11 mph /  17.7 km/h 11 mph /  17.7 km/h 46 % 0 in /  0.0 mm
14:02 79.7 °F /  26.5 °C 58.3 °F /  14.6 °C 30 in /  1017.2 hPa SSW 4 mph /  6.4 km/h 14 mph /  22.5 km/h 48 % 0 in /  0.0 mm
14:07 79.7 °F /  26.5 °C 59.4 °F /  15.2 °C 30 in /  1017.2 hPa SW 8 mph /  12.9 km/h 14 mph /  22.5 km/h 50 % 0 in /  0.0 mm
14:12 80.1 °F /  26.7 °C 59.2 °F /  15.1 °C 30 in /  1017.2 hPa SW 7 mph /  11.3 km/h 12 mph /  19.3 km/h 49 % 0 in /  0.0 mm
14:17 79.9 °F /  26.6 °C 60.1 °F /  15.6 °C 30 in /  1017.2 hPa SSW 5 mph /  8.0 km/h 12 mph /  19.3 km/h 51 % 0 in /  0.0 mm
14:22 80.1 °F /  26.7 °C 59.7 °F /  15.4 °C 30 in /  1017.2 hPa SW 4 mph /  6.4 km/h 10 mph /  16.1 km/h 50 % 0 in /  0.0 mm
14:27 80.6 °F /  27.0 °C 60.8 °F /  16.0 °C 30 in /  1017.2 hPa SW 9 mph /  14.5 km/h 10 mph /  16.1 km/h 51 % 0 in /  0.0 mm
14:32 80.8 °F /  27.1 °C 58.1 °F /  14.5 °C 30 in /  1016.8 hPa WSW 8 mph /  12.9 km/h 10 mph /  16.1 km/h 46 % 0 in /  0.0 mm
14:37 81.1 °F /  27.3 °C 57.7 °F /  14.3 °C 30 in /  1016.8 hPa SW 3 mph /  4.8 km/h 10 mph /  16.1 km/h 45 % 0 in /  0.0 mm
14:42 81 °F /  27.2 °C 57.6 °F /  14.2 °C 30 in /  1016.8 hPa SW 3 mph /  4.8 km/h 10 mph /  16.1 km/h 45 % 0 in /  0.0 mm
14:47 81.5 °F /  27.5 °C 59.4 °F /  15.2 °C 30 in /  1016.8 hPa SW 7 mph /  11.3 km/h 10 mph /  16.1 km/h 47 % 0 in /  0.0 mm
14:52 81.3 °F /  27.4 °C 57.9 °F /  14.4 °C 30 in /  1016.8 hPa SW 11 mph /  17.7 km/h 11 mph /  17.7 km/h 45 % 0 in /  0.0 mm
14:57 81.1 °F /  27.3 °C 57.7 °F /  14.3 °C 30 in /  1016.5 hPa WSW 9 mph /  14.5 km/h 11 mph /  17.7 km/h 45 % 0 in /  0.0 mm
15:02 81 °F /  27.2 °C 58.8 °F /  14.9 °C 30 in /  1016.5 hPa SW 7 mph /  11.3 km/h 13 mph /  20.9 km/h 47 % 0 in /  0.0 mm
15:07 81 °F /  27.2 °C 59.4 °F /  15.2 °C 30 in /  1016.5 hPa SSW 6 mph /  9.7 km/h 13 mph /  20.9 km/h 48 % 0 in /  0.0 mm
15:12 81 °F /  27.2 °C 57.6 °F /  14.2 °C 30 in /  1016.5 hPa SW 9 mph /  14.5 km/h 13 mph /  20.9 km/h 45 % 0 in /  0.0 mm
15:17 81.1 °F /  27.3 °C 58.5 °F /  14.7 °C 30 in /  1016.5 hPa SSW 8 mph /  12.9 km/h 11 mph /  17.7 km/h 46 % 0 in /  0.0 mm
15:22 81 °F /  27.2 °C 57.6 °F /  14.2 °C 30 in /  1016.1 hPa SW 4 mph /  6.4 km/h 12 mph /  19.3 km/h 45 % 0 in /  0.0 mm
15:27 81.1 °F /  27.3 °C 58.5 °F /  14.7 °C 30 in /  1016.1 hPa SW 5 mph /  8.0 km/h 12 mph /  19.3 km/h 46 % 0 in /  0.0 mm
15:32 81.3 °F /  27.4 °C 59.2 °F /  15.1 °C 30 in /  1016.1 hPa WSW 7 mph /  11.3 km/h 12 mph /  19.3 km/h 47 % 0 in /  0.0 mm
15:37 81.7 °F /  27.6 °C 58.3 °F /  14.6 °C 30 in /  1016.1 hPa SW 4 mph /  6.4 km/h 10 mph /  16.1 km/h 45 % 0 in /  0.0 mm
15:42 81.5 °F /  27.5 °C 58.1 °F /  14.5 °C 30 in /  1016.1 hPa SSW 6 mph /  9.7 km/h 12 mph /  19.3 km/h 45 % 0 in /  0.0 mm
15:47 81.3 °F /  27.4 °C 58.6 °F /  14.8 °C 30 in /  1016.1 hPa WSW 3 mph /  4.8 km/h 12 mph /  19.3 km/h 46 % 0 in /  0.0 mm
15:52 81.7 °F /  27.6 °C 58.8 °F /  14.9 °C 30 in /  1016.1 hPa SW 4 mph /  6.4 km/h 12 mph /  19.3 km/h 46 % 0 in /  0.0 mm
15:57 81.9 °F /  27.7 °C 59 °F /  15.0 °C 30 in /  1015.8 hPa WSW 2 mph /  3.2 km/h 11 mph /  17.7 km/h 46 % 0 in /  0.0 mm
16:02 82 °F /  27.8 °C 57.9 °F /  14.4 °C 30 in /  1015.8 hPa SW 5 mph /  8.0 km/h 8 mph /  12.9 km/h 44 % 0 in /  0.0 mm
16:07 82.2 °F /  27.9 °C 57.6 °F /  14.2 °C 30 in /  1015.8 hPa SSW 3 mph /  4.8 km/h 9 mph /  14.5 km/h 43 % 0 in /  0.0 mm
16:12 82 °F /  27.8 °C 57.4 °F /  14.1 °C 30 in /  1015.5 hPa West 7 mph /  11.3 km/h 9 mph /  14.5 km/h 43 % 0 in /  0.0 mm
16:17 81.9 °F /  27.7 °C 57.7 °F /  14.3 °C 30 in /  1015.5 hPa SW 6 mph /  9.7 km/h 12 mph /  19.3 km/h 44 % 0 in /  0.0 mm
16:22 82.2 °F /  27.9 °C 56.8 °F /  13.8 °C 30 in /  1015.5 hPa WSW 6 mph /  9.7 km/h 12 mph /  19.3 km/h 42 % 0 in /  0.0 mm
16:27 82 °F /  27.8 °C 57.9 °F /  14.4 °C 30 in /  1015.5 hPa SW 3 mph /  4.8 km/h 11 mph /  17.7 km/h 44 % 0 in /  0.0 mm
16:32 82 °F /  27.8 °C 57.4 °F /  14.1 °C 30 in /  1015.5 hPa SE 2 mph /  3.2 km/h 11 mph /  17.7 km/h 43 % 0 in /  0.0 mm
16:37 81.9 °F /  27.7 °C 57.7 °F /  14.3 °C 30 in /  1015.5 hPa SW 3 mph /  4.8 km/h 11 mph /  17.7 km/h 44 % 0 in /  0.0 mm
16:42 81.5 °F /  27.5 °C 56.8 °F /  13.8 °C 30 in /  1015.1 hPa SW 4 mph /  6.4 km/h 12 mph /  19.3 km/h 43 % 0 in /  0.0 mm
16:47 81.7 °F /  27.6 °C 58.3 °F /  14.6 °C 30 in /  1015.1 hPa SW 6 mph /  9.7 km/h 12 mph /  19.3 km/h 45 % 0 in /  0.0 mm
16:52 81.7 °F /  27.6 °C 57.6 °F /  14.2 °C 30 in /  1015.1 hPa SSW 3 mph /  4.8 km/h 12 mph /  19.3 km/h 44 % 0 in /  0.0 mm
16:57 81.9 °F /  27.7 °C 57.7 °F /  14.3 °C 30 in /  1015.1 hPa SSW 6 mph /  9.7 km/h 11 mph /  17.7 km/h 44 % 0 in /  0.0 mm
17:02 82 °F /  27.8 °C 58.6 °F /  14.8 °C 30 in /  1015.1 hPa South 4 mph /  6.4 km/h 11 mph /  17.7 km/h 45 % 0 in /  0.0 mm
17:07 82 °F /  27.8 °C 57.4 °F /  14.1 °C 30 in /  1015.1 hPa SW 5 mph /  8.0 km/h 9 mph /  14.5 km/h 43 % 0 in /  0.0 mm
17:12 81.9 °F /  27.7 °C 59 °F /  15.0 °C 30 in /  1014.8 hPa SW 7 mph /  11.3 km/h 9 mph /  14.5 km/h 46 % 0 in /  0.0 mm
17:17 81.7 °F /  27.6 °C 57 °F /  13.9 °C 30 in /  1014.8 hPa SSW 7 mph /  11.3 km/h 13 mph /  20.9 km/h 43 % 0 in /  0.0 mm
17:22 81.7 °F /  27.6 °C 58.3 °F /  14.6 °C 30 in /  1014.8 hPa SW 6 mph /  9.7 km/h 13 mph /  20.9 km/h 45 % 0 in /  0.0 mm
17:32 81.1 °F /  27.3 °C 59.5 °F /  15.3 °C 30 in /  1014.8 hPa SSW 5 mph /  8.0 km/h 10 mph /  16.1 km/h 48 % 0 in /  0.0 mm
17:37 81 °F /  27.2 °C 58.8 °F /  14.9 °C 30 in /  1014.8 hPa SW 6 mph /  9.7 km/h 8 mph /  12.9 km/h 47 % 0 in /  0.0 mm
17:42 80.8 °F /  27.1 °C 61 °F /  16.1 °C 30 in /  1014.8 hPa SSW 5 mph /  8.0 km/h 9 mph /  14.5 km/h 51 % 0 in /  0.0 mm
17:47 80.8 °F /  27.1 °C 61.5 °F /  16.4 °C 30 in /  1014.4 hPa SW 4 mph /  6.4 km/h 9 mph /  14.5 km/h 52 % 0 in /  0.0 mm
17:52 80.8 °F /  27.1 °C 61 °F /  16.1 °C 30 in /  1014.4 hPa SSW 2 mph /  3.2 km/h 9 mph /  14.5 km/h 51 % 0 in /  0.0 mm
17:57 81 °F /  27.2 °C 61.2 °F /  16.2 °C 30 in /  1014.4 hPa SW 4 mph /  6.4 km/h 8 mph /  12.9 km/h 51 % 0 in /  0.0 mm
18:02 81.5 °F /  27.5 °C 61.7 °F /  16.5 °C 30 in /  1014.4 hPa WSW 5 mph /  8.0 km/h 9 mph /  14.5 km/h 51 % 0 in /  0.0 mm
18:07 81.5 °F /  27.5 °C 59.9 °F /  15.5 °C 30 in /  1014.4 hPa South 5 mph /  8.0 km/h 9 mph /  14.5 km/h 48 % 0 in /  0.0 mm
18:12 81.3 °F /  27.4 °C 58.6 °F /  14.8 °C 30 in /  1014.4 hPa SSW 5 mph /  8.0 km/h 9 mph /  14.5 km/h 46 % 0 in /  0.0 mm
18:17 81.1 °F /  27.3 °C 58.5 °F /  14.7 °C 30 in /  1014.4 hPa SSE 6 mph /  9.7 km/h 9 mph /  14.5 km/h 46 % 0 in /  0.0 mm
18:22 81.1 °F /  27.3 °C 58.5 °F /  14.7 °C 30 in /  1014.4 hPa SW 9 mph /  14.5 km/h 9 mph /  14.5 km/h 46 % 0 in /  0.0 mm
18:32 80.6 °F /  27.0 °C 60.3 °F /  15.7 °C 30 in /  1014.4 hPa SW 3 mph /  4.8 km/h 9 mph /  14.5 km/h 50 % 0 in /  0.0 mm
18:42 80.2 °F /  26.8 °C 61 °F /  16.1 °C 29.9 in /  1014.1 hPa SW 2 mph /  3.2 km/h 8 mph /  12.9 km/h 52 % 0 in /  0.0 mm
18:47 80.1 °F /  26.7 °C 60.3 °F /  15.7 °C 29.9 in /  1014.1 hPa SSW 5 mph /  8.0 km/h 7 mph /  11.3 km/h 51 % 0 in /  0.0 mm
18:52 79.7 °F /  26.5 °C 61.5 °F /  16.4 °C 29.9 in /  1014.1 hPa SW 4 mph /  6.4 km/h 7 mph /  11.3 km/h 54 % 0 in /  0.0 mm
18:57 79.3 °F /  26.3 °C 61.2 °F /  16.2 °C 29.9 in /  1014.1 hPa SW 3 mph /  4.8 km/h 6 mph /  9.7 km/h 54 % 0 in /  0.0 mm
19:02 79.3 °F /  26.3 °C 60.8 °F /  16.0 °C 29.9 in /  1014.1 hPa SW 3 mph /  4.8 km/h 6 mph /  9.7 km/h 53 % 0 in /  0.0 mm
19:07 79.2 °F /  26.2 °C 61.2 °F /  16.2 °C 29.9 in /  1014.1 hPa SSW 2 mph /  3.2 km/h 6 mph /  9.7 km/h 54 % 0 in /  0.0 mm
19:12 79.3 °F /  26.3 °C 60.8 °F /  16.0 °C 29.9 in /  1014.1 hPa SSW 3 mph /  4.8 km/h 6 mph /  9.7 km/h 53 % 0 in /  0.0 mm
19:17 79.3 °F /  26.3 °C 61.2 °F /  16.2 °C 29.9 in /  1013.8 hPa SW 2 mph /  3.2 km/h 6 mph /  9.7 km/h 54 % 0 in /  0.0 mm
19:22 79.9 °F /  26.6 °C 61.7 °F /  16.5 °C 29.9 in /  1014.1 hPa SW 3 mph /  4.8 km/h 5 mph /  8.0 km/h 54 % 0 in /  0.0 mm
19:27 80.1 °F /  26.7 °C 60.8 °F /  16.0 °C 29.9 in /  1014.1 hPa WSW 2 mph /  3.2 km/h 5 mph /  8.0 km/h 52 % 0 in /  0.0 mm
19:32 80.1 °F /  26.7 °C 60.8 °F /  16.0 °C 29.9 in /  1014.1 hPa SSW 5 mph /  8.0 km/h 5 mph /  8.0 km/h 52 % 0 in /  0.0 mm
19:37 80.2 °F /  26.8 °C 60.4 °F /  15.8 °C 29.9 in /  1014.1 hPa SW 5 mph /  8.0 km/h 5 mph /  8.0 km/h 51 % 0 in /  0.0 mm
19:42 80.4 °F /  26.9 °C 61.2 °F /  16.2 °C 29.9 in /  1013.8 hPa WSW 2 mph /  3.2 km/h 7 mph /  11.3 km/h 52 % 0 in /  0.0 mm
19:47 80.4 °F /  26.9 °C 60.6 °F /  15.9 °C 29.9 in /  1013.8 hPa WSW 4 mph /  6.4 km/h 7 mph /  11.3 km/h 51 % 0 in /  0.0 mm
19:52 80.1 °F /  26.7 °C 61.3 °F /  16.3 °C 29.9 in /  1013.8 hPa South 3 mph /  4.8 km/h 7 mph /  11.3 km/h 53 % 0 in /  0.0 mm
19:57 79.9 °F /  26.6 °C 61.7 °F /  16.5 °C 29.9 in /  1013.8 hPa SW 4 mph /  6.4 km/h 7 mph /  11.3 km/h 54 % 0 in /  0.0 mm
20:02 79.7 °F /  26.5 °C 62.1 °F /  16.7 °C 29.9 in /  1013.8 hPa SW 2 mph /  3.2 km/h 7 mph /  11.3 km/h 55 % 0 in /  0.0 mm
20:07 79.3 °F /  26.3 °C 61.7 °F /  16.5 °C 29.9 in /  1013.8 hPa SW 4 mph /  6.4 km/h 7 mph /  11.3 km/h 55 % 0 in /  0.0 mm
20:12 79.2 °F /  26.2 °C 62.1 °F /  16.7 °C 29.9 in /  1013.8 hPa WSW 2 mph /  3.2 km/h 5 mph /  8.0 km/h 56 % 0 in /  0.0 mm
20:17 79 °F /  26.1 °C 61.5 °F /  16.4 °C 29.9 in /  1013.8 hPa SW 3 mph /  4.8 km/h 5 mph /  8.0 km/h 55 % 0 in /  0.0 mm
20:22 78.6 °F /  25.9 °C 60.6 °F /  15.9 °C 29.9 in /  1013.8 hPa SW 3 mph /  4.8 km/h 5 mph /  8.0 km/h 54 % 0 in /  0.0 mm
20:27 78.6 °F /  25.9 °C 60.6 °F /  15.9 °C 29.9 in /  1013.8 hPa WSW 3 mph /  4.8 km/h 5 mph /  8.0 km/h 54 % 0 in /  0.0 mm
20:32 78.4 °F /  25.8 °C 60.4 °F /  15.8 °C 29.9 in /  1013.8 hPa SSW 4 mph /  6.4 km/h 5 mph /  8.0 km/h 54 % 0 in /  0.0 mm
20:37 78.1 °F /  25.6 °C 61.2 °F /  16.2 °C 29.9 in /  1013.8 hPa SSW 2 mph /  3.2 km/h 5 mph /  8.0 km/h 56 % 0 in /  0.0 mm
20:47 77.5 °F /  25.3 °C 61.2 °F /  16.2 °C 29.9 in /  1013.8 hPa WSW 2 mph /  3.2 km/h 5 mph /  8.0 km/h 57 % 0 in /  0.0 mm
20:52 77.4 °F /  25.2 °C 61 °F /  16.1 °C 29.9 in /  1013.8 hPa SW 2 mph /  3.2 km/h 5 mph /  8.0 km/h 57 % 0 in /  0.0 mm
20:57 77.2 °F /  25.1 °C 61.3 °F /  16.3 °C 29.9 in /  1013.8 hPa WSW 3 mph /  4.8 km/h 5 mph /  8.0 km/h 58 % 0 in /  0.0 mm
21:02 76.8 °F /  24.9 °C 60.4 °F /  15.8 °C 29.9 in /  1013.8 hPa WSW 1 mph /  1.6 km/h 5 mph /  8.0 km/h 57 % 0 in /  0.0 mm
21:07 76.6 °F /  24.8 °C 60.3 °F /  15.7 °C 29.9 in /  1013.8 hPa SW 1 mph /  1.6 km/h 5 mph /  8.0 km/h 57 % 0 in /  0.0 mm
21:12 76.3 °F /  24.6 °C 59.9 °F /  15.5 °C 29.9 in /  1013.8 hPa WSW 2 mph /  3.2 km/h 6 mph /  9.7 km/h 57 % 0 in /  0.0 mm
21:17 75.9 °F /  24.4 °C 60.6 °F /  15.9 °C 29.9 in /  1013.8 hPa WSW 2 mph /  3.2 km/h 6 mph /  9.7 km/h 59 % 0 in /  0.0 mm
21:22 75.6 °F /  24.2 °C 62.6 °F /  17.0 °C 29.9 in /  1013.8 hPa West 9 mph /  14.5 km/h 9 mph /  14.5 km/h 64 % 0 in /  0.0 mm
21:27 73.9 °F /  23.3 °C 61 °F /  16.1 °C 29.9 in /  1014.1 hPa WNW 7 mph /  11.3 km/h 16 mph /  25.7 km/h 64 % 0 in /  0.0 mm
21:32 73.2 °F /  22.9 °C 60.8 °F /  16.0 °C 30 in /  1014.4 hPa WNW 11 mph /  17.7 km/h 16 mph /  25.7 km/h 65 % 0 in /  0.0 mm
21:37 72.7 °F /  22.6 °C 60.6 °F /  15.9 °C 30 in /  1014.4 hPa WNW 4 mph /  6.4 km/h 16 mph /  25.7 km/h 66 % 0 in /  0.0 mm
21:42 72.1 °F /  22.3 °C 60.6 °F /  15.9 °C 30 in /  1014.4 hPa WNW 2 mph /  3.2 km/h 14 mph /  22.5 km/h 67 % 0 in /  0.0 mm
21:47 71.6 °F /  22.0 °C 60.4 °F /  15.8 °C 30 in /  1014.4 hPa NW 2 mph /  3.2 km/h 14 mph /  22.5 km/h 68 % 0 in /  0.0 mm
21:52 71.2 °F /  21.8 °C 60.6 °F /  15.9 °C 30 in /  1014.4 hPa WNW 4 mph /  6.4 km/h 13 mph /  20.9 km/h 69 % 0 in /  0.0 mm
21:57 70.9 °F /  21.6 °C 60.6 °F /  15.9 °C 30 in /  1014.4 hPa WNW 7 mph /  11.3 km/h 11 mph /  17.7 km/h 70 % 0 in /  0.0 mm
22:02 70.5 °F /  21.4 °C 60.6 °F /  15.9 °C 30 in /  1014.4 hPa WNW 6 mph /  9.7 km/h 11 mph /  17.7 km/h 71 % 0 in /  0.0 mm
22:07 70.5 °F /  21.4 °C 60.6 °F /  15.9 °C 30 in /  1014.8 hPa West 11 mph /  17.7 km/h 13 mph /  20.9 km/h 71 % 0 in /  0.0 mm
22:12 70.3 °F /  21.3 °C 60.8 °F /  16.0 °C 30 in /  1014.8 hPa NW 3 mph /  4.8 km/h 15 mph /  24.1 km/h 72 % 0 in /  0.0 mm
22:17 70 °F /  21.1 °C 60.6 °F /  15.9 °C 30 in /  1014.8 hPa WNW 3 mph /  4.8 km/h 15 mph /  24.1 km/h 72 % 0 in /  0.0 mm
22:22 69.6 °F /  20.9 °C 60.6 °F /  15.9 °C 30 in /  1015.1 hPa West 8 mph /  12.9 km/h 15 mph /  24.1 km/h 73 % 0 in /  0.0 mm
22:27 69.4 °F /  20.8 °C 61.2 °F /  16.2 °C 30 in /  1015.1 hPa West 6 mph /  9.7 km/h 14 mph /  22.5 km/h 75 % 0 in /  0.0 mm
22:32 69.1 °F /  20.6 °C 60.8 °F /  16.0 °C 30 in /  1015.1 hPa WNW 10 mph /  16.1 km/h 18 mph /  29.0 km/h 75 % 0 in /  0.0 mm
22:37 68.7 °F /  20.4 °C 60.4 °F /  15.8 °C 30 in /  1015.1 hPa West 6 mph /  9.7 km/h 18 mph /  29.0 km/h 75 % 0 in /  0.0 mm
22:42 68.4 °F /  20.2 °C 60.4 °F /  15.8 °C 30 in /  1015.1 hPa WNW 5 mph /  8.0 km/h 18 mph /  29.0 km/h 76 % 0 in /  0.0 mm
22:47 68 °F /  20.0 °C 60.1 °F /  15.6 °C 30 in /  1015.5 hPa WNW 7 mph /  11.3 km/h 19 mph /  30.6 km/h 76 % 0 in /  0.0 mm
22:52 67.8 °F /  19.9 °C 59.9 °F /  15.5 °C 30 in /  1015.5 hPa WNW 6 mph /  9.7 km/h 19 mph /  30.6 km/h 76 % 0 in /  0.0 mm
22:57 67.5 °F /  19.7 °C 59.5 °F /  15.3 °C 30 in /  1015.5 hPa West 5 mph /  8.0 km/h 19 mph /  30.6 km/h 76 % 0 in /  0.0 mm
23:02 67.3 °F /  19.6 °C 59.5 °F /  15.3 °C 30 in /  1015.5 hPa WNW 4 mph /  6.4 km/h 19 mph /  30.6 km/h 76 % 0 in /  0.0 mm
23:07 67.1 °F /  19.5 °C 59.4 °F /  15.2 °C 30 in /  1015.5 hPa West 7 mph /  11.3 km/h 14 mph /  22.5 km/h 76 % 0 in /  0.0 mm
23:12 66.9 °F /  19.4 °C 59.2 °F /  15.1 °C 30 in /  1015.5 hPa West 6 mph /  9.7 km/h 15 mph /  24.1 km/h 76 % 0 in /  0.0 mm
23:17 66.7 °F /  19.3 °C 59.4 °F /  15.2 °C 30 in /  1015.5 hPa West 11 mph /  17.7 km/h 15 mph /  24.1 km/h 77 % 0 in /  0.0 mm
23:22 66.6 °F /  19.2 °C 59.2 °F /  15.1 °C 30 in /  1015.5 hPa WNW 3 mph /  4.8 km/h 14 mph /  22.5 km/h 77 % 0 in /  0.0 mm
23:27 66.4 °F /  19.1 °C 59.4 °F /  15.2 °C 30 in /  1015.5 hPa WNW 8 mph /  12.9 km/h 17 mph /  27.4 km/h 78 % 0 in /  0.0 mm
23:32 66.2 °F /  19.0 °C 59.2 °F /  15.1 °C 30 in /  1015.5 hPa West 5 mph /  8.0 km/h 17 mph /  27.4 km/h 78 % 0 in /  0.0 mm
23:37 65.8 °F /  18.8 °C 58.8 °F /  14.9 °C 30 in /  1015.5 hPa WSW 4 mph /  6.4 km/h 17 mph /  27.4 km/h 78 % 0 in /  0.0 mm
23:42 65.7 °F /  18.7 °C 58.6 °F /  14.8 °C 30 in /  1015.5 hPa WNW 2 mph /  3.2 km/h 10 mph /  16.1 km/h 78 % 0 in /  0.0 mm
23:52 65.5 °F /  18.6 °C 58.8 °F /  14.9 °C 30 in /  1015.5 hPa West 4 mph /  6.4 km/h 11 mph /  17.7 km/h 79 % 0 in /  0.0 mm
23:57 65.1 °F /  18.4 °C 58.8 °F /  14.9 °C 30 in /  1015.8 hPa West 4 mph /  6.4 km/h 11 mph /  17.7 km/h 80 % 0 in /  0.0 mm
Meteo18
Compliments of Weather Underground - 4 mb

Script developed by  Jim McMurry - jmcmurry@mwt.net Adapted for the template by  Wim van der Kuil - Leuven-Template.eu

You find our weather info also at:

European Weather Network

Weather Underground

Equipment we use:

Weather-station
Davis Vue

Weather-program
Meteohub

Weather-server
Raspberry PI 2 B+

Provider
1 and 1

Davis Vue

Meteohub

Raspberry PI 2 B+

1 and 1